Airfield :
LOGIN :

Register | Disclaimer

   EN    FR    IT 

 










Legend :    VFR   Marginal VFR   IFR   Intensive IFR   Very Intensive IFR
Visi :
Ceiling :
>= 8 km
>= 3000ft
5 to 8 km
1000 to 3000 ft
1500m to 5 km
500 to 1000 ft
800 to 1500m
200 to 500 ft
< 800m
< 200 ft
Symbols :   Thunderstorms  Fog  Heavy snow  Heavy precipitations  Wind > 20 kt
SIGMETs :     Misc.  Thunderstorms  Icing  Turbulence  Mountain Waves  Volcanic Ashes







- Airport Elevation : 525 ft
- IATA code : VAF
- Download approach charts


LFLU - Valence

CURRENT METAR :
  • 200700Z AUTO VRB02KT CAVOK 17/15 Q1015

EXPIRED METARs :
  • 200630Z AUTO 28004KT 9999 FEW036/// SCT076/// BKN100/// ///TCU 17/15 Q1014
  • 200600Z AUTO 36003KT 340V040 9999 -RA FEW044/// SCT062/// BKN086/// ///CB 16/15 Q1014

TAF N/A
No reported NOTAMs for that airfield.
2 SIGMETs reported for the Marseille FIR (LFMM) :
 
SIGMET 2  cancelation
LFMM SIGMET 3 VALID 200705/200800 LFPW
LFMM MARSEILLE FIR/UIR CNL SIGMET 2 200600/200800=
SIGMET 2  CANCELED :
Embedded thunderstorms
LFMM SIGMET 2 VALID 200600/200800 LFPW
LFMM MARSEILLE FIR/UIR EMBD TS OBS WI N4500 E00445 - N4615 E00600 - N4600 E00645 - N4430 E00530 - N4500 E00445 TOP FL320 MOV NE 20KT NC=



MET'MAP, your aeronautical weather chart ! - Copyright ORBIFLY December 2007 - Disclaimer

ORBIFLY MET'MAP TEAM :

Programming & Development : Alexandra Zaïnal
Concept & Development : Baudouin d'Aumeries
Co-Development & Prog : Marc-Olivier Méhu
Technical & hardware support : Manuel Goepfert

Contact : metmap@orbifly.com




SOURCES & CREDITS :

   NOAA